Time;durP1;ratioP1;P1;durP2;ratioP2;P2;SDS_P1;SDS_P2;PMS_P1;PMS_P2;Temp;Humidity;BMP_temperature;BMP_pressure;BME280_temperature;BME280_humidity;BME280_pressure;Samples;Min_cycle;Max_cycle;Signal;HPM_P1;HPM_P2
2023/12/24 00:02:17;;;;;;;;;17.33;12.00;;;;;-143.90;100.00;75540.22;4884146;28;109128;-72
2023/12/24 00:04:43;;;;;;;;;11.00;11.00;;;;;-143.90;100.00;75531.97;4879535;28;102706;-73
2023/12/24 00:07:10;;;;;;;;;11.33;8.33;;;;;-143.90;100.00;75542.31;4885661;28;101542;-72
2023/12/24 00:09:36;;;;;;;;;10.33;9.00;;;;;-143.90;100.00;75540.22;4883998;28;103370;-75
2023/12/24 00:12:04;;;;;;;;;11.00;9.00;;;;;-143.90;100.00;75540.22;4885947;28;101687;-72
2023/12/24 00:14:30;;;;;;;;;12.00;11.00;;;;;-143.90;100.00;75550.56;4876806;28;101473;-73
2023/12/24 00:16:57;;;;;;;;;12.00;11.67;;;;;-143.90;100.00;75550.56;4886058;28;102066;-74
2023/12/24 00:19:24;;;;;;;;;16.67;13.67;;;;;-143.90;100.00;75569.19;4882346;28;103862;-74
2023/12/24 00:21:51;;;;;;;;;14.33;11.00;;;;;-143.90;100.00;75552.63;4882112;28;102332;-73
2023/12/24 00:24:17;;;;;;;;;13.33;8.67;;;;;-143.90;100.00;75552.63;4882455;28;102016;-74
2023/12/24 00:26:44;;;;;;;;;12.00;9.00;;;;;-143.90;100.00;75565.03;4883501;28;103239;-74
2023/12/24 00:29:10;;;;;;;;;11.67;8.00;;;;;-143.90;100.00;75552.63;4881672;28;103634;-75
2023/12/24 00:31:37;;;;;;;;;5.67;5.67;;;;;-143.90;100.00;75548.50;4884282;28;101651;-73
2023/12/24 00:34:04;;;;;;;;;8.00;6.33;;;;;-143.90;100.00;75552.63;4882235;28;103202;-74
2023/12/24 00:36:30;;;;;;;;;9.00;5.00;;;;;-143.90;100.00;75556.78;4871986;28;101544;-74
2023/12/24 00:38:57;;;;;;;;;8.00;7.00;;;;;-143.90;100.00;75558.84;4884314;28;103321;-74
2023/12/24 00:41:23;;;;;;;;;5.67;5.00;;;;;-143.90;100.00;75542.31;4885434;28;101601;-74
2023/12/24 00:43:50;;;;;;;;;6.67;6.00;;;;;-143.90;100.00;75565.03;4881092;28;101617;-73
2023/12/24 00:46:17;;;;;;;;;6.00;5.67;;;;;-143.90;100.00;75556.78;4883680;28;105592;-74
2023/12/24 00:48:43;;;;;;;;;7.50;5.00;;;;;-143.90;100.00;75569.19;4876597;28;108601;-74
2023/12/24 00:51:10;;;;;;;;;7.50;6.00;;;;;-143.90;100.00;75573.31;4860930;28;102534;-74
2023/12/24 00:53:37;;;;;;;;;5.50;5.00;;;;;-143.90;100.00;75569.19;4877561;28;101944;-74
2023/12/24 00:56:04;;;;;;;;;4.50;4.00;;;;;-143.90;100.00;75569.19;4880194;28;101968;-74
2023/12/24 00:58:30;;;;;;;;;4.75;4.75;;;;;-143.90;100.00;75567.13;4874659;28;104648;-74
2023/12/24 01:00:57;;;;;;;;;6.25;4.75;;;;;-143.90;100.00;75577.44;4878313;28;101877;-73
2023/12/24 01:03:24;;;;;;;;;4.00;4.00;;;;;-143.90;100.00;75581.59;4880406;28;101711;-73
2023/12/24 01:05:51;;;;;;;;;5.00;4.25;;;;;-143.90;100.00;75585.72;4876211;28;102078;-73
2023/12/24 01:08:17;;;;;;;;;8.25;8.00;;;;;-143.90;100.00;75594.00;4880868;28;103915;-73
2023/12/24 01:10:44;;;;;;;;;5.00;4.00;;;;;-143.90;100.00;75598.13;4874778;28;101711;-73
2023/12/24 01:13:10;;;;;;;;;8.00;6.67;;;;;-143.90;100.00;75591.94;4879744;28;101537;-73
2023/12/24 01:15:37;;;;;;;;;7.00;4.00;;;;;-143.90;100.00;75589.84;4876910;28;101771;-73
2023/12/24 01:18:04;;;;;;;;;7.50;5.00;;;;;-143.90;100.00;75594.00;4871019;28;104482;-73
2023/12/24 01:20:31;;;;;;;;;5.50;5.00;;;;;-143.90;100.00;75594.00;4867844;28;103376;-74
2023/12/24 01:22:57;;;;;;;;;8.75;6.25;;;;;-143.90;100.00;75604.34;4870968;28;102385;-73
2023/12/24 01:25:24;;;;;;;;;4.00;2.00;;;;;-143.90;100.00;75604.34;4881515;28;103728;-73
2023/12/24 01:27:52;;;;;;;;;6.75;4.50;;;;;-143.90;100.00;75598.13;4874397;28;103938;-72
2023/12/24 01:30:20;;;;;;;;;6.00;4.75;;;;;-143.90;100.00;75608.47;4874989;28;102128;-72
2023/12/24 01:32:46;;;;;;;;;5.25;4.00;;;;;-143.90;100.00;75614.66;4867087;28;102063;-73
2023/12/24 01:35:16;;;;;;;;;4.00;4.00;;;;;-143.90;100.00;75616.72;4872971;28;101789;-73
2023/12/24 01:37:42;;;;;;;;;4.00;3.00;;;;;-143.90;100.00;75625.00;4875597;28;108225;-73
2023/12/24 01:40:09;;;;;;;;;2.50;2.50;;;;;-143.90;100.00;75627.06;4880833;28;102360;-73
2023/12/24 01:42:36;;;;;;;;;4.75;3.50;;;;;-143.90;100.00;75635.34;4871385;28;102056;-72
2023/12/24 01:45:03;;;;;;;;;3.50;2.00;;;;;-143.90;100.00;75635.34;4882493;28;102251;-73
2023/12/24 01:47:30;;;;;;;;;3.25;1.50;;;;;-143.90;100.00;75633.28;4876638;28;103531;-72
2023/12/24 01:49:58;;;;;;;;;4.00;2.00;;;;;-143.90;100.00;75637.41;4878206;28;103500;-73
2023/12/24 01:52:25;;;;;;;;;4.00;2.00;;;;;-143.90;100.00;75647.75;4876942;28;101554;-72
2023/12/24 01:54:53;;;;;;;;;1.50;1.00;;;;;-143.90;100.00;75639.47;4883342;28;101897;-74
2023/12/24 01:57:20;;;;;;;;;1.00;1.00;;;;;-143.90;100.00;75643.63;4880673;28;103396;-72
2023/12/24 01:59:46;;;;;;;;;1.75;1.00;;;;;-143.90;100.00;75649.81;4886302;28;101515;-73
2023/12/24 02:02:14;;;;;;;;;3.00;1.00;;;;;-143.90;100.00;75658.09;4878509;28;101701;-73
2023/12/24 02:04:41;;;;;;;;;1.50;1.50;;;;;-143.90;100.00;75656.03;4872208;28;102210;-72
2023/12/24 02:07:10;;;;;;;;;1.00;1.00;;;;;-143.90;100.00;75656.03;4881004;28;103615;-73
2023/12/24 02:09:37;;;;;;;;;1.00;1.00;;;;;-143.90;100.00;75664.28;4878259;28;103725;-73
2023/12/24 02:12:04;;;;;;;;;2.00;2.00;;;;;-143.90;100.00;75660.16;4882611;28;101974;-73
2023/12/24 02:14:30;;;;;;;;;6.25;3.50;;;;;-143.90;100.00;75662.22;4871294;28;102351;-73
2023/12/24 02:16:59;;;;;;;;;1.25;1.00;;;;;-143.90;100.00;75656.03;4883970;28;103379;-73
2023/12/24 02:19:27;;;;;;;;;3.25;1.00;;;;;-143.90;100.00;75656.03;4882784;28;101748;-73
2023/12/24 02:21:53;;;;;;;;;0.50;0.50;;;;;-143.90;100.00;75664.28;4883909;28;102216;-73
2023/12/24 02:24:20;;;;;;;;;1.50;1.00;;;;;-143.90;100.00;75672.56;4883534;28;101841;-73
2023/12/24 02:27:10;;;;;;;;;1.00;1.00;;;;;-143.90;100.00;75664.28;4880957;28;103600;-73
2023/12/24 02:29:42;;;;;;;;;1.00;1.00;;;;;-143.90;100.00;75678.75;4881015;28;101699;-73
2023/12/24 02:32:17;;;;;;;;;1.00;1.00;;;;;-143.90;100.00;75678.75;4881782;28;101760;-73
2023/12/24 02:34:46;;;;;;;;;0.00;0.00;;;;;-143.90;100.00;75680.84;4880645;28;101815;-75
2023/12/24 02:37:13;;;;;;;;;1.25;1.25;;;;;-143.90;100.00;75684.97;4882338;28;109351;-72
2023/12/24 02:39:41;;;;;;;;;1.25;1.00;;;;;-143.90;100.00;75711.84;4887016;28;101785;-74
2023/12/24 02:42:14;;;;;;;;;1.75;1.00;;;;;-143.90;100.00;75697.38;4880165;28;101635;-73
2023/12/24 02:44:42;;;;;;;;;1.00;1.00;;;;;-143.90;100.00;75703.56;4875793;28;101955;-73
2023/12/24 02:47:09;;;;;;;;;1.00;0.00;;;;;-143.90;100.00;75697.38;4882618;28;103518;-73
2023/12/24 02:49:36;;;;;;;;;0.75;0.75;;;;;-143.90;100.00;75705.66;4884726;28;102418;-72
2023/12/24 02:52:04;;;;;;;;;0.00;0.00;;;;;-143.90;100.00;75701.50;4884428;28;104379;-74
2023/12/24 02:54:30;;;;;;;;;1.00;0.75;;;;;-143.90;100.00;75703.56;4875119;28;102031;-73
2023/12/24 02:56:57;;;;;;;;;1.00;0.00;;;;;-143.90;100.00;75705.66;4881023;28;103799;-73
2023/12/24 02:59:26;;;;;;;;;0.75;0.00;;;;;-143.90;100.00;75697.38;4884603;28;101800;-73
2023/12/24 03:01:52;;;;;;;;;0.00;0.00;;;;;-143.90;100.00;75705.66;4882070;28;102075;-74
2023/12/24 03:04:19;;;;;;;;;1.00;0.00;;;;;-143.90;100.00;75701.50;4886117;28;101917;-73
2023/12/24 03:06:46;;;;;;;;;0.00;0.00;;;;;-143.90;100.00;75705.66;4884694;28;103719;-73
2023/12/24 03:09:12;;;;;;;;;0.00;0.00;;;;;-143.90;100.00;75703.56;4882445;28;102052;-74
2023/12/24 03:11:39;;;;;;;;;0.00;0.00;;;;;-143.90;100.00;75695.31;4884068;28;101507;-73
2023/12/24 03:14:05;;;;;;;;;1.00;0.00;;;;;-143.90;100.00;75701.50;4884606;28;102930;-73
2023/12/24 03:16:32;;;;;;;;;0.25;0.00;;;;;-143.90;100.00;75697.38;4877495;28;106040;-72
2023/12/24 03:18:59;;;;;;;;;1.00;1.00;;;;;-143.90;100.00;75695.31;4882455;28;102439;-73
2023/12/24 03:21:25;;;;;;;;;0.00;0.00;;;;;-143.90;100.00;75697.38;4881151;28;101760;-73
2023/12/24 03:23:52;;;;;;;;;0.00;0.00;;;;;-143.90;100.00;75699.44;4880684;28;101734;-73
2023/12/24 03:26:20;;;;;;;;;0.00;0.00;;;;;-143.90;100.00;75693.25;4880530;28;103390;-73
2023/12/24 03:28:48;;;;;;;;;0.00;0.00;;;;;-143.90;100.00;75695.31;4880113;28;102949;-73
2023/12/24 03:31:15;;;;;;;;;2.00;0.00;;;;;-143.90;100.00;75695.31;4879342;28;102983;-73
2023/12/24 03:33:44;;;;;;;;;0.00;0.00;;;;;-143.90;100.00;75699.44;4885361;28;103624;-74
2023/12/24 03:36:11;;;;;;;;;0.00;0.00;;;;;-143.90;100.00;75705.66;4881871;28;103757;-74
2023/12/24 03:38:37;;;;;;;;;0.00;0.00;;;;;-143.90;100.00;75705.66;4877538;28;107222;-73
2023/12/24 03:41:04;;;;;;;;;1.00;0.00;;;;;-143.90;100.00;75695.31;4878719;28;101644;-73
2023/12/24 03:43:31;;;;;;;;;0.00;0.00;;;;;-143.90;100.00;75697.38;4885043;28;101672;-73
2023/12/24 03:45:58;;;;;;;;;0.00;0.00;;;;;-143.90;100.00;75691.16;4881018;28;103562;-73
2023/12/24 03:48:24;;;;;;;;;1.00;1.00;;;;;-143.90;100.00;75693.25;4874021;28;101561;-73
2023/12/24 03:50:51;;;;;;;;;4.00;0.00;;;;;-143.90;100.00;75693.25;4880634;28;102146;-73
2023/12/24 03:53:18;;;;;;;;;2.50;1.00;;;;;-143.90;100.00;75693.25;4883547;28;101865;-73
2023/12/24 03:55:44;;;;;;;;;1.00;0.25;;;;;-143.90;100.00;75689.09;4886046;28;108331;-74
2023/12/24 03:58:11;;;;;;;;;3.50;0.75;;;;;-143.90;100.00;75689.09;4883416;28;102152;-74
2023/12/24 04:00:38;;;;;;;;;4.00;1.25;;;;;-143.90;100.00;75693.25;4873062;28;101951;-74
2023/12/24 04:03:04;;;;;;;;;1.00;1.00;;;;;-143.90;100.00;75693.25;4881931;28;106463;-74
2023/12/24 04:05:31;;;;;;;;;2.00;2.00;;;;;-143.90;100.00;75699.44;4880618;28;104224;-73
2023/12/24 04:07:58;;;;;;;;;4.50;2.00;;;;;-143.90;100.00;75693.25;4879840;28;102017;-74
2023/12/24 04:10:25;;;;;;;;;1.50;1.50;;;;;-143.90;100.00;75693.25;4877033;28;101467;-74
2023/12/24 04:12:51;;;;;;;;;1.00;1.00;;;;;-143.90;100.00;75695.31;4881784;28;101873;-73
2023/12/24 04:15:18;;;;;;;;;1.50;1.50;;;;;-143.90;100.00;75705.66;4879046;28;103530;-73
2023/12/24 04:17:45;;;;;;;;;2.00;1.00;;;;;-143.90;100.00;75697.38;4882288;28;101406;-74
2023/12/24 04:20:12;;;;;;;;;2.00;1.00;;;;;-143.90;100.00;75701.50;4878845;28;101536;-72
2023/12/24 04:22:39;;;;;;;;;1.25;1.25;;;;;-143.90;100.00;75701.50;4878074;28;103203;-73
2023/12/24 04:25:06;;;;;;;;;0.75;0.50;;;;;-143.90;100.00;75693.25;4883555;28;103654;-73
2023/12/24 04:27:32;;;;;;;;;1.00;1.00;;;;;-143.90;100.00;75701.50;4879370;28;102126;-73
2023/12/24 04:29:59;;;;;;;;;1.75;1.00;;;;;-143.90;100.00;75699.44;4872094;28;103335;-73
2023/12/24 04:32:26;;;;;;;;;2.00;1.00;;;;;-143.90;100.00;75695.31;4871189;28;107424;-73
2023/12/24 04:34:52;;;;;;;;;1.00;1.00;;;;;-143.90;100.00;75703.56;4874037;28;103641;-73
2023/12/24 04:37:19;;;;;;;;;4.00;2.50;;;;;-143.90;100.00;75697.38;4878774;28;102771;-74
2023/12/24 04:39:46;;;;;;;;;3.50;2.00;;;;;-143.90;100.00;75703.56;4878407;28;102414;-74
2023/12/24 04:42:13;;;;;;;;;4.25;2.00;;;;;-143.90;100.00;75701.50;4880325;28;102537;-74
2023/12/24 04:44:39;;;;;;;;;1.25;1.25;;;;;-143.90;100.00;75701.50;4871440;28;103392;-74
2023/12/24 04:47:07;;;;;;;;;2.00;2.00;;;;;-143.90;100.00;75699.44;4875639;28;102083;-73
2023/12/24 04:49:34;;;;;;;;;1.00;1.00;;;;;-143.90;100.00;75699.44;4882055;28;101990;-74
2023/12/24 04:52:01;;;;;;;;;4.00;2.00;;;;;-143.90;100.00;75695.31;4877209;28;102012;-73
2023/12/24 04:54:27;;;;;;;;;2.50;1.25;;;;;-143.90;100.00;75697.38;4873491;28;103525;-74
2023/12/24 04:56:54;;;;;;;;;1.25;1.00;;;;;-143.90;100.00;75707.72;4885856;28;101756;-73
2023/12/24 04:59:21;;;;;;;;;4.00;2.00;;;;;-143.90;100.00;75705.66;4880540;28;101948;-73
2023/12/24 05:01:49;;;;;;;;;1.75;1.75;;;;;-143.90;100.00;75713.91;4882872;28;101980;-74
2023/12/24 05:04:16;;;;;;;;;3.50;2.00;;;;;-143.90;100.00;75715.97;4883506;28;108560;-74
2023/12/24 05:06:43;;;;;;;;;4.50;2.00;;;;;-143.90;100.00;75707.72;4869466;28;101647;-74
2023/12/24 05:09:09;;;;;;;;;1.00;0.50;;;;;-143.90;100.00;75699.44;4879837;28;102901;-73
2023/12/24 05:11:39;;;;;;;;;1.75;1.25;;;;;-143.90;100.00;75703.56;4879909;28;102034;-74
2023/12/24 05:14:06;;;;;;;;;2.50;1.25;;;;;-143.90;100.00;75699.44;4881856;28;103383;-73
2023/12/24 05:16:33;;;;;;;;;1.50;1.50;;;;;-143.90;100.00;75697.38;4879585;28;102106;-74
2023/12/24 05:19:00;;;;;;;;;4.00;3.00;;;;;-143.90;100.00;75699.44;4884003;28;102068;-74
2023/12/24 05:21:29;;;;;;;;;1.00;1.00;;;;;-143.90;100.00;75695.31;4886665;28;105374;-73
2023/12/24 05:23:57;;;;;;;;;4.75;2.00;;;;;-143.90;100.00;75691.16;4884733;28;103543;-73
2023/12/24 05:26:25;;;;;;;;;6.33;4.00;;;;;-143.90;100.00;75695.31;4881781;28;102923;-73
2023/12/24 05:28:53;;;;;;;;;4.00;4.00;;;;;-143.90;100.00;75697.38;4884168;28;101400;-73
2023/12/24 05:31:19;;;;;;;;;5.00;4.00;;;;;-143.90;100.00;75697.38;4877098;28;101809;-73
2023/12/24 05:33:46;;;;;;;;;4.50;3.50;;;;;-143.90;100.00;75697.38;4883971;28;103376;-74
2023/12/24 05:36:14;;;;;;;;;5.00;4.00;;;;;-143.90;100.00;75699.44;4887007;28;101927;-72
2023/12/24 05:38:40;;;;;;;;;4.00;3.33;;;;;-143.90;100.00;75693.25;4875714;28;105203;-72
2023/12/24 05:41:09;;;;;;;;;4.00;1.25;;;;;-143.90;100.00;75684.97;4883329;28;101686;-73
2023/12/24 05:43:36;;;;;;;;;2.00;2.00;;;;;-143.90;100.00;75689.09;4882740;28;104203;-73
2023/12/24 05:46:04;;;;;;;;;3.25;1.00;;;;;-143.90;100.00;75684.97;4884402;28;102005;-75
2023/12/24 05:48:31;;;;;;;;;2.00;2.00;;;;;-143.90;100.00;75691.16;4877757;28;101758;-73
2023/12/24 05:50:57;;;;;;;;;1.50;1.00;;;;;-143.90;100.00;75687.03;4882741;28;102671;-73
2023/12/24 05:53:24;;;;;;;;;1.50;1.00;;;;;-143.90;100.00;75684.97;4883738;28;103334;-73
2023/12/24 05:55:51;;;;;;;;;0.00;0.00;;;;;-143.90;100.00;75684.97;4884767;28;102616;-74
2023/12/24 05:58:18;;;;;;;;;1.75;1.25;;;;;-143.90;100.00;75689.09;4885164;28;102290;-74
2023/12/24 06:00:44;;;;;;;;;2.00;1.00;;;;;-143.90;100.00;75684.97;4875622;28;104603;-73
2023/12/24 06:03:11;;;;;;;;;0.00;0.00;;;;;-143.90;100.00;75684.97;4884355;28;103987;-73
2023/12/24 06:05:38;;;;;;;;;1.00;1.00;;;;;-143.90;100.00;75684.97;4885150;28;108143;-74
2023/12/24 06:08:06;;;;;;;;;1.25;1.00;;;;;-143.90;100.00;75684.97;4881563;28;102212;-73
2023/12/24 06:10:33;;;;;;;;;2.00;2.00;;;;;-143.90;100.00;75684.97;4877964;28;101960;-73
2023/12/24 06:13:01;;;;;;;;;4.00;4.00;;;;;-143.90;100.00;75695.31;4886707;28;103702;-74
2023/12/24 06:15:27;;;;;;;;;5.33;4.67;;;;;-143.90;100.00;75693.25;4880094;28;101831;-75
2023/12/24 06:17:54;;;;;;;;;7.00;5.00;;;;;-143.90;100.00;75691.16;4881881;28;103412;-73
2023/12/24 06:20:21;;;;;;;;;4.25;4.00;;;;;-143.90;100.00;75695.31;4867900;28;102501;-75
2023/12/24 06:22:47;;;;;;;;;4.00;2.00;;;;;-143.90;100.00;75691.16;4879479;28;102856;-73
2023/12/24 06:25:15;;;;;;;;;4.50;1.50;;;;;-143.90;100.00;75691.16;4882031;28;106484;-73
2023/12/24 06:27:41;;;;;;;;;6.00;4.00;;;;;-143.90;100.00;75693.25;4884073;28;101811;-73
2023/12/24 06:30:09;;;;;;;;;4.50;4.00;;;;;-143.90;100.00;75687.03;4878761;28;103286;-73
2023/12/24 06:32:35;;;;;;;;;5.00;3.00;;;;;-143.90;100.00;75682.91;4876941;28;103139;-73
2023/12/24 06:35:02;;;;;;;;;1.75;1.75;;;;;-143.90;100.00;75676.69;4884297;28;102880;-73
2023/12/24 06:37:29;;;;;;;;;0.75;0.75;;;;;-143.90;100.00;75674.63;4887343;28;101745;-74
2023/12/24 06:39:56;;;;;;;;;1.75;1.50;;;;;-143.90;100.00;75676.69;4891204;28;101509;-74
2023/12/24 06:42:22;;;;;;;;;2.00;1.00;;;;;-143.90;100.00;75684.97;4878949;28;103629;-74
2023/12/24 06:44:49;;;;;;;;;1.75;1.75;;;;;-143.90;100.00;75676.69;4879153;28;102236;-73
2023/12/24 06:47:17;;;;;;;;;0.50;0.00;;;;;-143.90;100.00;75678.75;4887921;28;101952;-74
2023/12/24 06:49:44;;;;;;;;;1.00;1.00;;;;;-143.90;100.00;75676.69;4888524;28;102186;-73
2023/12/24 06:52:11;;;;;;;;;1.75;1.00;;;;;-143.90;100.00;75680.84;4885062;28;103333;-74
2023/12/24 06:54:38;;;;;;;;;1.75;0.75;;;;;-143.90;100.00;75676.69;4876146;28;105671;-73
2023/12/24 06:57:07;;;;;;;;;0.50;0.25;;;;;-143.90;100.00;75676.69;4883057;28;101898;-74
2023/12/24 06:59:33;;;;;;;;;1.75;1.00;;;;;-143.90;100.00;75676.69;4887544;28;101653;-74
2023/12/24 07:02:01;;;;;;;;;4.00;3.00;;;;;-143.90;100.00;75670.50;4882681;28;103479;-74
2023/12/24 07:04:28;;;;;;;;;0.50;0.00;;;;;-143.90;100.00;75668.44;4879247;28;101603;-74
2023/12/24 07:06:54;;;;;;;;;4.00;3.50;;;;;-143.90;100.00;75668.44;4885614;28;101915;-75
2023/12/24 07:09:21;;;;;;;;;1.25;1.25;;;;;-143.90;100.00;75660.16;4884930;28;102764;-74
2023/12/24 07:11:47;;;;;;;;;0.50;0.50;;;;;-143.90;100.00;75662.22;4888938;28;103700;-74
2023/12/24 07:14:14;;;;;;;;;1.50;1.50;;;;;-143.90;100.00;75653.94;4887869;28;104463;-74
2023/12/24 07:16:40;;;;;;;;;1.25;0.50;;;;;-143.90;100.00;75643.63;4880645;28;101828;-74
2023/12/24 07:19:08;;;;;;;;;0.25;0.25;;;;;-143.90;100.00;75637.41;4885809;28;102364;-74
2023/12/24 07:21:35;;;;;;;;;1.00;1.00;;;;;-143.90;100.00;75639.47;4887469;28;104089;-74
2023/12/24 07:24:03;;;;;;;;;2.00;2.00;;;;;-143.90;100.00;75637.41;4886180;28;101610;-74
2023/12/24 07:26:29;;;;;;;;;0.00;0.00;;;;;-143.90;100.00;75637.41;4874877;28;101780;-74
2023/12/24 07:28:56;;;;;;;;;0.00;0.00;;;;;-143.90;100.00;75637.41;4888333;28;102748;-74
2023/12/24 07:31:22;;;;;;;;;1.75;1.75;;;;;-143.90;100.00;75639.47;4885810;28;103372;-74
2023/12/24 07:33:49;;;;;;;;;1.00;1.00;;;;;-143.90;100.00;75633.28;4880393;28;103039;-74
2023/12/24 07:36:16;;;;;;;;;1.00;1.00;;;;;-143.90;100.00;75616.72;4890824;28;101975;-74
2023/12/24 07:38:42;;;;;;;;;2.00;1.00;;;;;-143.90;100.00;75620.88;4879121;28;101967;-73
2023/12/24 07:41:12;;;;;;;;;0.00;0.00;;;;;-143.90;100.00;75606.41;4886318;28;103419;-73
2023/12/24 07:43:39;;;;;;;;;4.00;1.00;;;;;-143.90;100.00;75612.59;4878090;28;101774;-74
2023/12/24 07:46:06;;;;;;;;;3.50;2.00;;;;;-143.90;100.00;75594.00;4884481;28;103380;-74
2023/12/24 07:48:33;;;;;;;;;1.00;1.00;;;;;-143.90;100.00;75596.06;4880470;28;101780;-74
2023/12/24 07:50:59;;;;;;;;;2.50;2.00;;;;;-143.90;100.00;75583.66;4885173;28;103369;-74
2023/12/24 07:53:26;;;;;;;;;1.00;1.00;;;;;-143.90;100.00;75579.53;4886332;28;101478;-74
2023/12/24 07:55:52;;;;;;;;;2.50;2.50;;;;;-143.90;100.00;75577.44;4888277;28;101540;-73
2023/12/24 07:58:19;;;;;;;;;2.00;2.00;;;;;-143.90;100.00;75562.97;4886313;28;103403;-74
2023/12/24 08:00:46;;;;;;;;;6.00;5.00;;;;;-143.90;100.00;75565.03;4879900;28;108380;-74
2023/12/24 08:03:13;;;;;;;;;8.00;8.00;;;;;-143.90;100.00;75558.84;4886045;28;101918;-74
2023/12/24 08:05:39;;;;;;;;;8.00;6.00;;;;;-143.90;100.00;75548.50;4887631;28;103241;-74
2023/12/24 08:08:06;;;;;;;;;11.00;9.00;;;;;-143.90;100.00;75552.63;4883428;28;101791;-74
2023/12/24 08:10:33;;;;;;;;;10.25;8.00;;;;;-143.90;100.00;75542.31;4876662;28;103975;-74
2023/12/24 08:12:59;;;;;;;;;7.50;7.50;;;;;-143.90;100.00;75536.09;4881716;28;102361;-74
2023/12/24 08:15:37;;;;;;;;;12.00;11.50;;;;;-143.90;100.00;75534.03;4868167;28;102012;-74
2023/12/24 08:18:04;;;;;;;;;9.50;9.00;;;;;-143.90;100.00;75523.69;4884602;28;101735;-73
2023/12/24 08:20:31;;;;;;;;;4.75;4.25;;;;;-143.90;100.00;75527.81;4871955;28;103386;-74
2023/12/24 08:22:58;;;;;;;;;1.00;1.00;;;;;-143.90;100.00;75531.97;4885522;28;105881;-73
2023/12/24 08:25:24;;;;;;;;;7.50;4.75;;;;;-143.90;100.00;75531.97;4883921;28;102080;-73
2023/12/24 08:27:51;;;;;;;;;4.75;4.00;;;;;-143.90;100.00;75525.75;4879002;28;101825;-73
2023/12/24 08:30:18;;;;;;;;;9.00;5.00;;;;;-143.90;100.00;75531.97;4865691;28;103493;-73
2023/12/24 08:32:45;;;;;;;;;1.50;1.50;;;;;-143.90;100.00;75536.09;4876105;28;101698;-73
2023/12/24 08:35:12;;;;;;;;;2.75;2.00;;;;;-143.90;100.00;75544.38;4881234;28;101779;-73
2023/12/24 08:37:39;;;;;;;;;3.50;2.00;;;;;-143.90;100.00;75534.03;4884669;28;102277;-73
2023/12/24 08:40:07;;;;;;;;;1.50;1.50;;;;;-143.90;100.00;75534.03;4883063;28;103582;-73
2023/12/24 08:42:33;;;;;;;;;2.50;2.25;;;;;-143.90;100.00;75536.09;4878702;28;105149;-73
2023/12/24 08:45:00;;;;;;;;;2.00;1.00;;;;;-143.90;100.00;75527.81;4879347;28;103735;-73
2023/12/24 08:47:27;;;;;;;;;4.25;4.25;;;;;-143.90;100.00;75525.75;4886459;28;104341;-74
2023/12/24 08:49:54;;;;;;;;;4.75;4.00;;;;;-143.90;100.00;75531.97;4878537;28;105001;-74
2023/12/24 08:52:21;;;;;;;;;4.25;4.25;;;;;-143.90;100.00;75527.81;4880556;28;101613;-74
2023/12/24 08:54:47;;;;;;;;;7.50;5.25;;;;;-143.90;100.00;75517.50;4859512;28;102808;-74
2023/12/24 08:57:14;;;;;;;;;4.50;4.50;;;;;-143.90;100.00;75509.22;4884095;28;102143;-74
2023/12/24 08:59:41;;;;;;;;;3.50;3.50;;;;;-143.90;100.00;75503.03;4880701;28;103516;-74
2023/12/24 09:02:08;;;;;;;;;4.25;4.00;;;;;-143.90;100.00;75498.88;4881092;28;101963;-73
2023/12/24 09:04:34;;;;;;;;;4.00;2.00;;;;;-143.90;100.00;75503.03;4874671;28;102068;-74
2023/12/24 09:07:01;;;;;;;;;2.00;1.00;;;;;-143.90;100.00;75492.69;4880381;28;101862;-73
2023/12/24 09:09:28;;;;;;;;;2.50;1.00;;;;;-143.90;100.00;75488.53;4878623;28;103637;-73
2023/12/24 09:11:54;;;;;;;;;4.00;2.75;;;;;-143.90;100.00;75486.47;4879250;28;104956;-73
2023/12/24 09:14:21;;;;;;;;;2.00;1.00;;;;;-143.90;100.00;75480.28;4879698;28;102193;-73
2023/12/24 09:16:48;;;;;;;;;2.00;1.00;;;;;-143.90;100.00;75474.06;4878137;28;101686;-73
2023/12/24 09:19:14;;;;;;;;;1.00;0.25;;;;;-143.90;100.00;75474.06;4876678;28;109977;-74
2023/12/24 09:21:41;;;;;;;;;2.00;1.00;;;;;-143.90;100.00;75469.94;4881527;28;102984;-74
2023/12/24 09:24:08;;;;;;;;;3.75;3.75;;;;;-143.90;100.00;75457.53;4881754;28;101942;-74
2023/12/24 09:26:35;;;;;;;;;1.75;1.00;;;;;-143.90;100.00;75461.66;4878367;28;102585;-74
2023/12/24 09:29:02;;;;;;;;;1.50;1.50;;;;;-143.90;100.00;75461.66;4882713;28;103740;-74
2023/12/24 09:31:28;;;;;;;;;2.00;2.00;;;;;-143.90;100.00;75451.31;4881379;28;102185;-75
2023/12/24 09:33:55;;;;;;;;;3.75;2.75;;;;;-143.90;100.00;75449.25;4879081;28;101887;-74
2023/12/24 09:36:22;;;;;;;;;1.50;1.50;;;;;-143.90;100.00;75441.00;4880200;28;103051;-74
2023/12/24 09:38:48;;;;;;;;;1.25;1.25;;;;;-143.90;100.00;75436.84;4877240;28;103646;-73
2023/12/24 09:41:18;;;;;;;;;3.00;2.00;;;;;-143.90;100.00;75430.66;4885389;28;101635;-75
2023/12/24 09:43:45;;;;;;;;;2.00;1.25;;;;;-143.90;100.00;75430.66;4879464;28;102651;-74
2023/12/24 09:46:11;;;;;;;;;2.50;2.50;;;;;-143.90;100.00;75426.50;4880078;28;103083;-74
2023/12/24 09:48:38;;;;;;;;;2.50;2.00;;;;;-143.90;100.00;75420.31;4873624;28;103677;-73
2023/12/24 09:51:06;;;;;;;;;4.50;2.50;;;;;-143.90;100.00;75414.13;4884367;28;101688;-74
2023/12/24 09:53:33;;;;;;;;;1.00;0.00;;;;;-143.90;100.00;75414.13;4884155;28;101517;-74
2023/12/24 09:56:00;;;;;;;;;5.25;4.75;;;;;-143.90;100.00;75405.84;4884762;28;103246;-74
2023/12/24 09:58:26;;;;;;;;;4.25;4.25;;;;;-143.90;100.00;75397.56;4876605;28;103782;-73
2023/12/24 10:00:53;;;;;;;;;5.00;4.00;;;;;-143.90;100.00;75395.50;4876767;28;101846;-73
2023/12/24 10:03:19;;;;;;;;;5.00;3.50;;;;;-143.90;100.00;75393.44;4887827;28;101846;-73
2023/12/24 10:06:03;;;;;;;;;5.25;5.25;;;;;-143.90;100.00;75387.22;4887829;28;102263;-72
2023/12/24 10:08:31;;;;;;;;;7.25;5.00;;;;;-143.90;100.00;75403.78;4535460;28;10001404;-72
2023/12/24 10:11:20;;;;;;;;;31.00;26.33;;;;;-143.90;100.00;75407.91;4885802;28;101726;-71
2023/12/24 10:13:58;;;;;;;;;35.33;27.33;;;;;-143.90;100.00;75416.19;4884999;28;101428;-74
2023/12/24 10:16:26;;;;;;;;;69.67;50.00;;;;;-143.90;100.00;75420.31;4883699;28;103739;-73
2023/12/24 10:18:58;;;;;;;;;68.33;48.33;;;;;-143.90;100.00;75441.00;4884804;28;102863;-72
2023/12/24 10:21:25;;;;;;;;;44.67;40.33;;;;;-143.90;100.00;75449.25;4882819;28;103317;-72
2023/12/24 10:23:52;;;;;;;;;38.33;31.00;;;;;-143.90;100.00;75453.41;4886401;28;102004;-73
2023/12/24 10:26:20;;;;;;;;;31.67;28.00;;;;;-143.90;100.00;75432.72;4886639;28;102024;-73
2023/12/24 10:28:51;;;;;;;;;24.33;21.67;;;;;-143.90;100.00;75418.25;4879543;28;102606;-73
2023/12/24 10:31:27;;;;;;;;;18.50;16.00;;;;;-143.90;100.00;75416.19;4880985;28;108058;-72
2023/12/24 10:34:00;;;;;;;;;26.75;21.00;;;;;-143.90;100.00;75412.03;4878551;28;103163;-72
2023/12/24 10:36:27;;;;;;;;;22.00;20.00;;;;;-143.90;100.00;75403.78;4870360;28;102880;-73
2023/12/24 10:38:54;;;;;;;;;26.75;18.00;;;;;-143.90;100.00;75391.38;4876968;28;102051;-72
2023/12/24 10:41:21;;;;;;;;;19.25;16.00;;;;;-143.90;100.00;75383.09;4883439;28;103423;-72
2023/12/24 10:43:47;;;;;;;;;18.75;17.00;;;;;-143.90;100.00;75370.69;4887962;28;102942;-72
2023/12/24 10:46:14;;;;;;;;;19.75;17.50;;;;;-143.90;100.00;75362.44;4880053;28;102122;-73
2023/12/24 10:48:41;;;;;;;;;13.50;10.50;;;;;-143.90;100.00;75345.88;4880137;28;102087;-72
2023/12/24 10:51:07;;;;;;;;;18.75;13.25;;;;;-143.90;100.00;75337.63;4885253;28;103460;-72
2023/12/24 10:53:41;;;;;;;;;13.50;12.50;;;;;-143.90;100.00;75339.69;4883667;28;101650;-73
2023/12/24 10:56:14;;;;;;;;;17.00;13.00;;;;;-143.90;100.00;75323.16;4878170;28;102411;-72
2023/12/24 10:58:54;;;;;;;;;16.00;12.25;;;;;-143.90;100.00;75316.94;4877197;28;101996;-72
2023/12/24 11:01:21;;;;;;;;;19.75;16.25;;;;;-143.90;100.00;75319.00;4877409;28;108356;-72